sensor_id;sensor_type;location;lat;lon;timestamp;P1;durP1;ratioP1;P2;durP2;ratioP2
27744;SDS011;61387;48.112;8.616;2023-04-10T00:02:09;14.27;;;7.93;;
27744;SDS011;61387;48.112;8.616;2023-04-10T00:04:35;15.50;;;7.83;;
27744;SDS011;61387;48.112;8.616;2023-04-10T00:07:01;14.83;;;8.40;;
27744;SDS011;61387;48.112;8.616;2023-04-10T00:09:26;13.10;;;7.70;;
27744;SDS011;61387;48.112;8.616;2023-04-10T00:11:53;13.30;;;8.17;;
27744;SDS011;61387;48.112;8.616;2023-04-10T00:14:20;13.90;;;7.30;;
27744;SDS011;61387;48.112;8.616;2023-04-10T00:16:50;12.97;;;7.30;;
27744;SDS011;61387;48.112;8.616;2023-04-10T00:19:16;14.73;;;8.20;;
27744;SDS011;61387;48.112;8.616;2023-04-10T00:21:41;14.67;;;8.40;;
27744;SDS011;61387;48.112;8.616;2023-04-10T00:24:07;12.57;;;7.53;;
27744;SDS011;61387;48.112;8.616;2023-04-10T00:26:33;13.75;;;7.32;;
27744;SDS011;61387;48.112;8.616;2023-04-10T00:28:59;14.10;;;8.13;;
27744;SDS011;61387;48.112;8.616;2023-04-10T00:31:25;13.03;;;7.23;;
27744;SDS011;61387;48.112;8.616;2023-04-10T00:33:51;12.47;;;7.03;;
27744;SDS011;61387;48.112;8.616;2023-04-10T00:36:17;13.20;;;7.67;;
27744;SDS011;61387;48.112;8.616;2023-04-10T00:38:43;12.70;;;6.70;;
27744;SDS011;61387;48.112;8.616;2023-04-10T00:41:09;13.63;;;8.10;;
27744;SDS011;61387;48.112;8.616;2023-04-10T00:43:34;12.43;;;7.40;;
27744;SDS011;61387;48.112;8.616;2023-04-10T00:46:00;12.63;;;7.10;;
27744;SDS011;61387;48.112;8.616;2023-04-10T00:48:25;12.13;;;7.30;;
27744;SDS011;61387;48.112;8.616;2023-04-10T00:50:52;10.33;;;6.40;;
27744;SDS011;61387;48.112;8.616;2023-04-10T00:53:18;11.33;;;6.83;;
27744;SDS011;61387;48.112;8.616;2023-04-10T00:55:44;12.73;;;7.00;;
27744;SDS011;61387;48.112;8.616;2023-04-10T00:58:10;11.03;;;6.63;;
27744;SDS011;61387;48.112;8.616;2023-04-10T01:00:38;11.60;;;6.57;;
27744;SDS011;61387;48.112;8.616;2023-04-10T01:03:05;14.93;;;7.17;;
27744;SDS011;61387;48.112;8.616;2023-04-10T01:05:32;11.87;;;6.80;;
27744;SDS011;61387;48.112;8.616;2023-04-10T01:11:04;12.27;;;6.77;;
27744;SDS011;61387;48.112;8.616;2023-04-10T01:13:37;12.33;;;6.67;;
27744;SDS011;61387;48.112;8.616;2023-04-10T01:16:17;12.53;;;7.03;;
27744;SDS011;61387;48.112;8.616;2023-04-10T01:18:59;12.53;;;7.23;;
27744;SDS011;61387;48.112;8.616;2023-04-10T01:21:39;13.90;;;7.50;;
27744;SDS011;61387;48.112;8.616;2023-04-10T01:24:06;12.53;;;7.37;;
27744;SDS011;61387;48.112;8.616;2023-04-10T01:26:41;13.60;;;7.53;;
27744;SDS011;61387;48.112;8.616;2023-04-10T01:29:20;12.20;;;7.80;;
27744;SDS011;61387;48.112;8.616;2023-04-10T01:31:53;11.33;;;6.70;;
27744;SDS011;61387;48.112;8.616;2023-04-10T01:34:32;14.20;;;7.27;;
27744;SDS011;61387;48.112;8.616;2023-04-10T01:37:04;11.67;;;7.20;;
27744;SDS011;61387;48.112;8.616;2023-04-10T01:39:35;12.60;;;7.50;;
27744;SDS011;61387;48.112;8.616;2023-04-10T01:42:04;15.53;;;7.60;;
27744;SDS011;61387;48.112;8.616;2023-04-10T01:44:31;13.57;;;7.43;;
27744;SDS011;61387;48.112;8.616;2023-04-10T01:46:58;13.70;;;7.10;;
27744;SDS011;61387;48.112;8.616;2023-04-10T01:49:25;11.63;;;6.93;;
27744;SDS011;61387;48.112;8.616;2023-04-10T01:51:52;13.37;;;6.90;;
27744;SDS011;61387;48.112;8.616;2023-04-10T01:54:23;14.90;;;7.43;;
27744;SDS011;61387;48.112;8.616;2023-04-10T01:56:51;11.77;;;7.00;;
27744;SDS011;61387;48.112;8.616;2023-04-10T01:59:17;13.87;;;7.40;;
27744;SDS011;61387;48.112;8.616;2023-04-10T02:01:43;11.97;;;6.73;;
27744;SDS011;61387;48.112;8.616;2023-04-10T02:04:09;13.40;;;7.50;;
27744;SDS011;61387;48.112;8.616;2023-04-10T02:09:14;13.07;;;7.37;;
27744;SDS011;61387;48.112;8.616;2023-04-10T02:12:06;12.90;;;7.07;;
27744;SDS011;61387;48.112;8.616;2023-04-10T02:14:35;12.37;;;6.63;;
27744;SDS011;61387;48.112;8.616;2023-04-10T02:17:05;11.83;;;6.80;;
27744;SDS011;61387;48.112;8.616;2023-04-10T02:19:33;12.50;;;6.57;;
27744;SDS011;61387;48.112;8.616;2023-04-10T02:22:02;13.53;;;6.73;;
27744;SDS011;61387;48.112;8.616;2023-04-10T02:24:29;13.97;;;7.67;;
27744;SDS011;61387;48.112;8.616;2023-04-10T02:26:57;13.70;;;7.37;;
27744;SDS011;61387;48.112;8.616;2023-04-10T02:29:23;14.73;;;7.70;;
27744;SDS011;61387;48.112;8.616;2023-04-10T02:31:48;15.02;;;7.97;;
27744;SDS011;61387;48.112;8.616;2023-04-10T02:34:14;13.53;;;7.70;;
27744;SDS011;61387;48.112;8.616;2023-04-10T02:36:40;13.00;;;7.03;;
27744;SDS011;61387;48.112;8.616;2023-04-10T02:39:06;12.97;;;7.27;;
27744;SDS011;61387;48.112;8.616;2023-04-10T02:41:32;13.97;;;6.50;;
27744;SDS011;61387;48.112;8.616;2023-04-10T02:43:58;13.23;;;7.20;;
27744;SDS011;61387;48.112;8.616;2023-04-10T02:46:24;12.50;;;6.90;;
27744;SDS011;61387;48.112;8.616;2023-04-10T02:48:53;11.90;;;7.03;;
27744;SDS011;61387;48.112;8.616;2023-04-10T02:51:20;25.70;;;12.43;;
27744;SDS011;61387;48.112;8.616;2023-04-10T02:53:46;39.10;;;16.43;;
27744;SDS011;61387;48.112;8.616;2023-04-10T02:56:12;24.40;;;12.07;;
27744;SDS011;61387;48.112;8.616;2023-04-10T02:58:38;19.73;;;10.67;;
27744;SDS011;61387;48.112;8.616;2023-04-10T03:01:04;18.13;;;9.07;;
27744;SDS011;61387;48.112;8.616;2023-04-10T03:03:34;14.20;;;7.37;;
27744;SDS011;61387;48.112;8.616;2023-04-10T03:05:59;12.60;;;7.30;;
27744;SDS011;61387;48.112;8.616;2023-04-10T03:08:25;13.07;;;7.37;;
27744;SDS011;61387;48.112;8.616;2023-04-10T03:10:51;13.83;;;6.70;;
27744;SDS011;61387;48.112;8.616;2023-04-10T03:13:16;14.63;;;7.43;;
27744;SDS011;61387;48.112;8.616;2023-04-10T03:15:42;10.37;;;6.37;;
27744;SDS011;61387;48.112;8.616;2023-04-10T03:18:08;13.50;;;6.27;;
27744;SDS011;61387;48.112;8.616;2023-04-10T03:20:34;11.10;;;6.63;;
27744;SDS011;61387;48.112;8.616;2023-04-10T03:23:01;11.57;;;6.30;;
27744;SDS011;61387;48.112;8.616;2023-04-10T03:25:27;10.63;;;6.23;;
27744;SDS011;61387;48.112;8.616;2023-04-10T03:27:53;11.80;;;6.70;;
27744;SDS011;61387;48.112;8.616;2023-04-10T03:30:19;11.97;;;6.40;;
27744;SDS011;61387;48.112;8.616;2023-04-10T03:32:45;9.63;;;5.53;;
27744;SDS011;61387;48.112;8.616;2023-04-10T03:35:11;12.10;;;6.50;;
27744;SDS011;61387;48.112;8.616;2023-04-10T03:37:37;11.87;;;6.40;;
27744;SDS011;61387;48.112;8.616;2023-04-10T03:40:05;12.40;;;6.63;;
27744;SDS011;61387;48.112;8.616;2023-04-10T03:42:32;11.97;;;6.60;;
27744;SDS011;61387;48.112;8.616;2023-04-10T03:44:57;12.23;;;6.53;;
27744;SDS011;61387;48.112;8.616;2023-04-10T03:47:23;13.23;;;6.70;;
27744;SDS011;61387;48.112;8.616;2023-04-10T03:49:48;15.23;;;8.37;;
27744;SDS011;61387;48.112;8.616;2023-04-10T03:52:14;15.37;;;8.43;;
27744;SDS011;61387;48.112;8.616;2023-04-10T03:54:39;16.50;;;8.13;;
27744;SDS011;61387;48.112;8.616;2023-04-10T03:57:06;13.53;;;7.47;;
27744;SDS011;61387;48.112;8.616;2023-04-10T03:59:31;14.77;;;8.47;;
27744;SDS011;61387;48.112;8.616;2023-04-10T04:01:57;12.25;;;6.65;;
27744;SDS011;61387;48.112;8.616;2023-04-10T04:04:22;13.47;;;7.23;;
27744;SDS011;61387;48.112;8.616;2023-04-10T04:06:50;12.57;;;7.13;;
27744;SDS011;61387;48.112;8.616;2023-04-10T04:09:15;12.87;;;7.47;;
27744;SDS011;61387;48.112;8.616;2023-04-10T04:11:41;11.97;;;6.73;;
27744;SDS011;61387;48.112;8.616;2023-04-10T04:14:07;13.40;;;7.20;;
27744;SDS011;61387;48.112;8.616;2023-04-10T04:16:32;12.67;;;6.97;;
27744;SDS011;61387;48.112;8.616;2023-04-10T04:18:58;12.17;;;6.80;;
27744;SDS011;61387;48.112;8.616;2023-04-10T04:21:24;12.33;;;6.97;;
27744;SDS011;61387;48.112;8.616;2023-04-10T04:23:50;13.77;;;6.80;;
27744;SDS011;61387;48.112;8.616;2023-04-10T04:26:16;11.20;;;6.90;;
27744;SDS011;61387;48.112;8.616;2023-04-10T04:28:42;11.97;;;6.70;;
27744;SDS011;61387;48.112;8.616;2023-04-10T04:31:08;11.67;;;7.00;;
27744;SDS011;61387;48.112;8.616;2023-04-10T04:33:33;12.03;;;7.13;;
27744;SDS011;61387;48.112;8.616;2023-04-10T04:35:59;14.43;;;7.40;;
27744;SDS011;61387;48.112;8.616;2023-04-10T04:38:25;12.67;;;6.67;;
27744;SDS011;61387;48.112;8.616;2023-04-10T04:40:51;11.40;;;6.60;;
27744;SDS011;61387;48.112;8.616;2023-04-10T04:43:16;12.07;;;7.00;;
27744;SDS011;61387;48.112;8.616;2023-04-10T04:45:42;11.93;;;7.07;;
27744;SDS011;61387;48.112;8.616;2023-04-10T04:48:08;11.07;;;6.60;;
27744;SDS011;61387;48.112;8.616;2023-04-10T04:50:34;12.57;;;6.90;;
27744;SDS011;61387;48.112;8.616;2023-04-10T04:53:00;12.20;;;7.20;;
27744;SDS011;61387;48.112;8.616;2023-04-10T04:55:26;12.77;;;6.97;;
27744;SDS011;61387;48.112;8.616;2023-04-10T04:57:52;15.40;;;8.30;;
27744;SDS011;61387;48.112;8.616;2023-04-10T05:00:18;12.97;;;7.47;;
27744;SDS011;61387;48.112;8.616;2023-04-10T05:02:43;13.23;;;7.03;;
27744;SDS011;61387;48.112;8.616;2023-04-10T05:05:09;11.27;;;6.50;;
27744;SDS011;61387;48.112;8.616;2023-04-10T05:07:35;12.77;;;7.67;;
27744;SDS011;61387;48.112;8.616;2023-04-10T05:10:01;12.83;;;7.47;;
27744;SDS011;61387;48.112;8.616;2023-04-10T05:12:27;14.40;;;7.17;;
27744;SDS011;61387;48.112;8.616;2023-04-10T05:14:52;13.63;;;7.47;;
27744;SDS011;61387;48.112;8.616;2023-04-10T05:17:18;13.67;;;8.03;;
27744;SDS011;61387;48.112;8.616;2023-04-10T05:19:43;13.07;;;7.30;;
27744;SDS011;61387;48.112;8.616;2023-04-10T05:22:09;13.30;;;7.60;;
27744;SDS011;61387;48.112;8.616;2023-04-10T05:24:35;14.70;;;7.57;;
27744;SDS011;61387;48.112;8.616;2023-04-10T05:27:01;14.30;;;7.53;;
27744;SDS011;61387;48.112;8.616;2023-04-10T05:29:26;13.67;;;7.33;;
27744;SDS011;61387;48.112;8.616;2023-04-10T05:31:52;15.00;;;7.97;;
27744;SDS011;61387;48.112;8.616;2023-04-10T05:34:18;16.40;;;9.33;;
27744;SDS011;61387;48.112;8.616;2023-04-10T05:36:43;13.33;;;7.73;;
27744;SDS011;61387;48.112;8.616;2023-04-10T05:39:09;12.73;;;7.50;;
27744;SDS011;61387;48.112;8.616;2023-04-10T05:41:35;10.97;;;7.10;;
27744;SDS011;61387;48.112;8.616;2023-04-10T05:44:00;12.93;;;6.97;;
27744;SDS011;61387;48.112;8.616;2023-04-10T05:46:26;13.00;;;7.33;;
27744;SDS011;61387;48.112;8.616;2023-04-10T05:48:52;11.53;;;7.07;;
27744;SDS011;61387;48.112;8.616;2023-04-10T05:51:18;15.00;;;7.37;;
27744;SDS011;61387;48.112;8.616;2023-04-10T05:53:43;12.97;;;7.50;;
27744;SDS011;61387;48.112;8.616;2023-04-10T05:56:09;12.87;;;7.70;;
27744;SDS011;61387;48.112;8.616;2023-04-10T05:58:35;12.40;;;7.53;;
27744;SDS011;61387;48.112;8.616;2023-04-10T06:01:01;11.13;;;6.33;;
27744;SDS011;61387;48.112;8.616;2023-04-10T06:03:26;11.97;;;7.43;;
27744;SDS011;61387;48.112;8.616;2023-04-10T06:05:54;11.07;;;5.97;;
27744;SDS011;61387;48.112;8.616;2023-04-10T06:08:20;13.13;;;7.03;;
27744;SDS011;61387;48.112;8.616;2023-04-10T06:10:46;14.33;;;7.47;;
27744;SDS011;61387;48.112;8.616;2023-04-10T06:13:12;11.07;;;6.70;;
27744;SDS011;61387;48.112;8.616;2023-04-10T06:15:41;13.03;;;7.60;;
27744;SDS011;61387;48.112;8.616;2023-04-10T06:18:06;11.67;;;7.57;;
27744;SDS011;61387;48.112;8.616;2023-04-10T06:20:33;16.90;;;9.80;;
27744;SDS011;61387;48.112;8.616;2023-04-10T06:22:59;16.33;;;9.30;;
27744;SDS011;61387;48.112;8.616;2023-04-10T06:25:25;12.03;;;7.30;;
27744;SDS011;61387;48.112;8.616;2023-04-10T06:27:50;10.85;;;6.95;;
27744;SDS011;61387;48.112;8.616;2023-04-10T06:30:16;11.83;;;7.13;;
27744;SDS011;61387;48.112;8.616;2023-04-10T06:32:42;12.67;;;7.20;;
27744;SDS011;61387;48.112;8.616;2023-04-10T06:35:07;13.00;;;7.73;;
27744;SDS011;61387;48.112;8.616;2023-04-10T06:37:33;12.87;;;7.70;;
27744;SDS011;61387;48.112;8.616;2023-04-10T06:40:03;13.23;;;8.10;;
27744;SDS011;61387;48.112;8.616;2023-04-10T06:42:30;13.13;;;7.23;;
27744;SDS011;61387;48.112;8.616;2023-04-10T06:44:56;15.03;;;9.03;;
27744;SDS011;61387;48.112;8.616;2023-04-10T06:47:21;15.13;;;9.23;;
27744;SDS011;61387;48.112;8.616;2023-04-10T06:49:47;12.37;;;7.80;;
27744;SDS011;61387;48.112;8.616;2023-04-10T06:52:12;12.13;;;7.40;;
27744;SDS011;61387;48.112;8.616;2023-04-10T06:54:38;11.95;;;7.12;;
27744;SDS011;61387;48.112;8.616;2023-04-10T06:57:03;12.63;;;7.63;;
27744;SDS011;61387;48.112;8.616;2023-04-10T06:59:30;12.23;;;7.83;;
27744;SDS011;61387;48.112;8.616;2023-04-10T07:01:57;12.80;;;7.43;;
27744;SDS011;61387;48.112;8.616;2023-04-10T07:04:23;13.07;;;7.97;;
27744;SDS011;61387;48.112;8.616;2023-04-10T07:06:49;13.57;;;8.20;;
27744;SDS011;61387;48.112;8.616;2023-04-10T07:09:15;11.55;;;7.35;;
27744;SDS011;61387;48.112;8.616;2023-04-10T07:11:41;12.80;;;7.80;;
27744;SDS011;61387;48.112;8.616;2023-04-10T07:14:07;14.27;;;8.40;;
27744;SDS011;61387;48.112;8.616;2023-04-10T07:16:33;12.43;;;7.50;;
27744;SDS011;61387;48.112;8.616;2023-04-10T07:18:59;13.33;;;7.73;;
27744;SDS011;61387;48.112;8.616;2023-04-10T07:21:24;11.63;;;7.50;;
27744;SDS011;61387;48.112;8.616;2023-04-10T07:23:51;10.60;;;6.80;;
27744;SDS011;61387;48.112;8.616;2023-04-10T07:26:17;10.50;;;6.20;;
27744;SDS011;61387;48.112;8.616;2023-04-10T07:28:43;11.77;;;7.00;;
27744;SDS011;61387;48.112;8.616;2023-04-10T07:31:09;11.07;;;6.87;;
27744;SDS011;61387;48.112;8.616;2023-04-10T07:33:35;10.60;;;6.47;;
27744;SDS011;61387;48.112;8.616;2023-04-10T07:36:01;9.70;;;6.20;;
27744;SDS011;61387;48.112;8.616;2023-04-10T07:38:27;9.97;;;6.23;;
27744;SDS011;61387;48.112;8.616;2023-04-10T07:40:56;11.27;;;6.57;;
27744;SDS011;61387;48.112;8.616;2023-04-10T07:43:22;9.90;;;6.17;;
27744;SDS011;61387;48.112;8.616;2023-04-10T07:45:48;10.87;;;6.30;;
27744;SDS011;61387;48.112;8.616;2023-04-10T07:48:13;9.87;;;6.30;;
27744;SDS011;61387;48.112;8.616;2023-04-10T07:50:39;11.30;;;6.60;;
27744;SDS011;61387;48.112;8.616;2023-04-10T07:53:05;10.50;;;6.50;;
27744;SDS011;61387;48.112;8.616;2023-04-10T07:55:41;9.93;;;6.10;;
27744;SDS011;61387;48.112;8.616;2023-04-10T07:58:08;10.87;;;6.40;;
27744;SDS011;61387;48.112;8.616;2023-04-10T08:00:34;9.37;;;5.80;;
27744;SDS011;61387;48.112;8.616;2023-04-10T08:03:00;9.13;;;5.53;;
27744;SDS011;61387;48.112;8.616;2023-04-10T08:05:26;8.17;;;5.57;;
27744;SDS011;61387;48.112;8.616;2023-04-10T08:07:51;8.37;;;5.70;;
27744;SDS011;61387;48.112;8.616;2023-04-10T08:10:17;8.83;;;5.50;;
27744;SDS011;61387;48.112;8.616;2023-04-10T08:12:43;9.17;;;5.57;;
27744;SDS011;61387;48.112;8.616;2023-04-10T08:15:08;9.70;;;5.97;;
27744;SDS011;61387;48.112;8.616;2023-04-10T08:17:34;8.87;;;5.93;;
27744;SDS011;61387;48.112;8.616;2023-04-10T08:20:00;7.40;;;5.20;;
27744;SDS011;61387;48.112;8.616;2023-04-10T08:22:26;10.37;;;6.10;;
27744;SDS011;61387;48.112;8.616;2023-04-10T08:24:51;7.67;;;4.80;;
27744;SDS011;61387;48.112;8.616;2023-04-10T08:27:17;8.32;;;5.57;;
27744;SDS011;61387;48.112;8.616;2023-04-10T08:29:43;7.87;;;5.03;;
27744;SDS011;61387;48.112;8.616;2023-04-10T08:32:08;8.53;;;4.97;;
27744;SDS011;61387;48.112;8.616;2023-04-10T08:34:34;7.07;;;4.63;;
27744;SDS011;61387;48.112;8.616;2023-04-10T08:37:03;8.27;;;5.10;;
27744;SDS011;61387;48.112;8.616;2023-04-10T08:39:30;7.57;;;4.70;;
27744;SDS011;61387;48.112;8.616;2023-04-10T08:41:55;7.30;;;4.75;;
27744;SDS011;61387;48.112;8.616;2023-04-10T08:44:21;7.40;;;4.30;;
27744;SDS011;61387;48.112;8.616;2023-04-10T08:46:47;6.90;;;4.37;;
27744;SDS011;61387;48.112;8.616;2023-04-10T08:49:19;8.13;;;4.87;;
27744;SDS011;61387;48.112;8.616;2023-04-10T08:51:55;6.93;;;4.53;;
27744;SDS011;61387;48.112;8.616;2023-04-10T08:54:29;6.17;;;4.00;;
27744;SDS011;61387;48.112;8.616;2023-04-10T08:56:57;4.97;;;3.60;;
27744;SDS011;61387;48.112;8.616;2023-04-10T08:59:26;4.27;;;2.73;;
27744;SDS011;61387;48.112;8.616;2023-04-10T09:01:53;3.23;;;2.13;;
27744;SDS011;61387;48.112;8.616;2023-04-10T09:04:21;2.70;;;2.00;;
27744;SDS011;61387;48.112;8.616;2023-04-10T09:06:51;2.60;;;2.10;;
27744;SDS011;61387;48.112;8.616;2023-04-10T09:09:17;3.77;;;1.90;;
27744;SDS011;61387;48.112;8.616;2023-04-10T09:14:19;2.50;;;1.90;;
27744;SDS011;61387;48.112;8.616;2023-04-10T09:16:49;4.17;;;2.10;;
27744;SDS011;61387;48.112;8.616;2023-04-10T09:19:29;2.93;;;1.70;;
27744;SDS011;61387;48.112;8.616;2023-04-10T09:21:56;2.00;;;1.80;;
27744;SDS011;61387;48.112;8.616;2023-04-10T09:24:22;2.10;;;1.85;;
27744;SDS011;61387;48.112;8.616;2023-04-10T09:26:48;2.93;;;2.30;;
27744;SDS011;61387;48.112;8.616;2023-04-10T09:29:14;3.87;;;2.50;;
27744;SDS011;61387;48.112;8.616;2023-04-10T09:31:41;4.00;;;2.40;;
27744;SDS011;61387;48.112;8.616;2023-04-10T09:34:20;2.70;;;2.10;;
27744;SDS011;61387;48.112;8.616;2023-04-10T09:36:53;2.47;;;1.90;;
27744;SDS011;61387;48.112;8.616;2023-04-10T09:39:21;3.20;;;2.20;;
27744;SDS011;61387;48.112;8.616;2023-04-10T09:41:56;2.63;;;1.83;;
27744;SDS011;61387;48.112;8.616;2023-04-10T09:44:30;2.40;;;1.80;;
27744;SDS011;61387;48.112;8.616;2023-04-10T09:49:46;2.70;;;1.70;;
27744;SDS011;61387;48.112;8.616;2023-04-10T09:55:03;2.67;;;2.07;;
27744;SDS011;61387;48.112;8.616;2023-04-10T09:57:30;3.70;;;2.10;;
27744;SDS011;61387;48.112;8.616;2023-04-10T09:59:58;1.60;;;1.50;;
27744;SDS011;61387;48.112;8.616;2023-04-10T10:02:25;2.13;;;1.77;;
27744;SDS011;61387;48.112;8.616;2023-04-10T10:04:53;1.70;;;1.43;;
27744;SDS011;61387;48.112;8.616;2023-04-10T10:07:21;1.23;;;1.10;;
27744;SDS011;61387;48.112;8.616;2023-04-10T10:09:48;2.00;;;1.50;;
27744;SDS011;61387;48.112;8.616;2023-04-10T10:12:16;3.03;;;1.50;;
27744;SDS011;61387;48.112;8.616;2023-04-10T10:14:56;3.03;;;1.83;;
27744;SDS011;61387;48.112;8.616;2023-04-10T10:17:27;1.73;;;1.30;;
27744;SDS011;61387;48.112;8.616;2023-04-10T10:20:03;1.63;;;1.23;;
27744;SDS011;61387;48.112;8.616;2023-04-10T10:22:32;1.00;;;0.90;;
27744;SDS011;61387;48.112;8.616;2023-04-10T10:24:58;1.70;;;1.30;;
27744;SDS011;61387;48.112;8.616;2023-04-10T10:27:26;1.30;;;1.20;;
27744;SDS011;61387;48.112;8.616;2023-04-10T10:29:55;1.30;;;1.20;;
27744;SDS011;61387;48.112;8.616;2023-04-10T10:32:24;1.97;;;1.10;;
27744;SDS011;61387;48.112;8.616;2023-04-10T10:34:52;1.00;;;0.90;;
27744;SDS011;61387;48.112;8.616;2023-04-10T10:37:18;1.73;;;1.20;;
27744;SDS011;61387;48.112;8.616;2023-04-10T10:39:48;1.20;;;0.93;;
27744;SDS011;61387;48.112;8.616;2023-04-10T10:45:10;1.13;;;0.97;;
27744;SDS011;61387;48.112;8.616;2023-04-10T10:47:46;1.60;;;0.97;;
27744;SDS011;61387;48.112;8.616;2023-04-10T10:50:15;1.27;;;1.00;;
27744;SDS011;61387;48.112;8.616;2023-04-10T10:52:41;3.17;;;1.73;;
27744;SDS011;61387;48.112;8.616;2023-04-10T10:55:30;1.67;;;1.20;;
27744;SDS011;61387;48.112;8.616;2023-04-10T10:58:17;1.80;;;1.40;;
27744;SDS011;61387;48.112;8.616;2023-04-10T11:08:36;1.77;;;1.30;;
27744;SDS011;61387;48.112;8.616;2023-04-10T11:13:40;1.53;;;1.30;;
27744;SDS011;61387;48.112;8.616;2023-04-10T11:16:44;2.03;;;1.50;;
27744;SDS011;61387;48.112;8.616;2023-04-10T11:19:09;2.63;;;1.20;;
27744;SDS011;61387;48.112;8.616;2023-04-10T11:21:58;3.20;;;1.30;;
27744;SDS011;61387;48.112;8.616;2023-04-10T11:24:25;1.60;;;1.27;;
27744;SDS011;61387;48.112;8.616;2023-04-10T11:26:51;2.23;;;1.37;;
27744;SDS011;61387;48.112;8.616;2023-04-10T11:31:42;2.00;;;1.40;;
27744;SDS011;61387;48.112;8.616;2023-04-10T11:34:09;1.30;;;1.00;;
27744;SDS011;61387;48.112;8.616;2023-04-10T11:36:41;1.10;;;0.90;;
27744;SDS011;61387;48.112;8.616;2023-04-10T11:39:09;0.83;;;0.83;;
27744;SDS011;61387;48.112;8.616;2023-04-10T11:41:44;1.00;;;0.83;;
27744;SDS011;61387;48.112;8.616;2023-04-10T11:44:11;1.10;;;0.90;;
27744;SDS011;61387;48.112;8.616;2023-04-10T11:46:39;0.97;;;0.87;;
27744;SDS011;61387;48.112;8.616;2023-04-10T11:49:06;1.33;;;0.93;;
27744;SDS011;61387;48.112;8.616;2023-04-10T11:51:36;2.53;;;1.20;;
27744;SDS011;61387;48.112;8.616;2023-04-10T11:54:06;2.20;;;1.13;;
27744;SDS011;61387;48.112;8.616;2023-04-10T11:56:37;0.80;;;0.63;;
27744;SDS011;61387;48.112;8.616;2023-04-10T11:59:03;0.97;;;0.90;;
27744;SDS011;61387;48.112;8.616;2023-04-10T12:01:35;1.20;;;1.10;;
27744;SDS011;61387;48.112;8.616;2023-04-10T12:04:01;1.00;;;0.90;;
27744;SDS011;61387;48.112;8.616;2023-04-10T12:06:27;1.42;;;1.10;;
27744;SDS011;61387;48.112;8.616;2023-04-10T12:08:53;1.90;;;1.10;;
27744;SDS011;61387;48.112;8.616;2023-04-10T12:11:20;1.10;;;1.00;;
27744;SDS011;61387;48.112;8.616;2023-04-10T12:13:50;1.67;;;1.00;;
27744;SDS011;61387;48.112;8.616;2023-04-10T12:16:16;1.40;;;0.90;;
27744;SDS011;61387;48.112;8.616;2023-04-10T12:18:42;2.27;;;1.20;;
27744;SDS011;61387;48.112;8.616;2023-04-10T12:21:09;1.27;;;1.07;;
27744;SDS011;61387;48.112;8.616;2023-04-10T12:23:35;1.23;;;0.97;;
27744;SDS011;61387;48.112;8.616;2023-04-10T12:26:06;1.83;;;1.40;;
27744;SDS011;61387;48.112;8.616;2023-04-10T12:28:37;2.80;;;1.43;;
27744;SDS011;61387;48.112;8.616;2023-04-10T12:31:03;1.63;;;1.10;;
27744;SDS011;61387;48.112;8.616;2023-04-10T12:33:30;1.80;;;1.13;;
27744;SDS011;61387;48.112;8.616;2023-04-10T12:35:55;1.40;;;1.20;;
27744;SDS011;61387;48.112;8.616;2023-04-10T12:38:38;2.70;;;1.23;;
27744;SDS011;61387;48.112;8.616;2023-04-10T12:41:05;1.93;;;1.30;;
27744;SDS011;61387;48.112;8.616;2023-04-10T12:46:04;1.30;;;1.20;;
27744;SDS011;61387;48.112;8.616;2023-04-10T12:48:31;1.87;;;1.40;;
27744;SDS011;61387;48.112;8.616;2023-04-10T12:50:57;2.25;;;1.42;;
27744;SDS011;61387;48.112;8.616;2023-04-10T12:53:23;2.20;;;1.33;;
27744;SDS011;61387;48.112;8.616;2023-04-10T12:56:02;3.00;;;1.60;;
27744;SDS011;61387;48.112;8.616;2023-04-10T12:58:30;2.13;;;1.67;;
27744;SDS011;61387;48.112;8.616;2023-04-10T13:01:06;3.87;;;1.80;;
27744;SDS011;61387;48.112;8.616;2023-04-10T13:03:36;2.07;;;1.70;;
27744;SDS011;61387;48.112;8.616;2023-04-10T13:06:04;2.75;;;1.70;;
27744;SDS011;61387;48.112;8.616;2023-04-10T13:08:30;1.67;;;1.40;;
27744;SDS011;61387;48.112;8.616;2023-04-10T13:10:57;1.50;;;1.40;;
27744;SDS011;61387;48.112;8.616;2023-04-10T13:13:27;2.60;;;2.10;;
27744;SDS011;61387;48.112;8.616;2023-04-10T13:15:54;2.73;;;1.90;;
27744;SDS011;61387;48.112;8.616;2023-04-10T13:18:19;2.43;;;1.97;;
27744;SDS011;61387;48.112;8.616;2023-04-10T13:20:45;2.45;;;1.80;;
27744;SDS011;61387;48.112;8.616;2023-04-10T13:23:11;3.20;;;2.23;;
27744;SDS011;61387;48.112;8.616;2023-04-10T13:25:37;2.90;;;2.20;;
27744;SDS011;61387;48.112;8.616;2023-04-10T13:28:04;3.10;;;1.87;;
27744;SDS011;61387;48.112;8.616;2023-04-10T13:30:35;2.30;;;1.67;;
27744;SDS011;61387;48.112;8.616;2023-04-10T13:33:01;2.65;;;1.92;;
27744;SDS011;61387;48.112;8.616;2023-04-10T13:35:27;2.30;;;1.90;;
27744;SDS011;61387;48.112;8.616;2023-04-10T13:37:53;4.00;;;1.90;;
27744;SDS011;61387;48.112;8.616;2023-04-10T13:40:19;2.37;;;1.80;;
27744;SDS011;61387;48.112;8.616;2023-04-10T13:42:46;2.08;;;1.73;;
27744;SDS011;61387;48.112;8.616;2023-04-10T13:45:12;3.10;;;2.30;;
27744;SDS011;61387;48.112;8.616;2023-04-10T13:47:38;3.23;;;2.50;;
27744;SDS011;61387;48.112;8.616;2023-04-10T13:50:03;3.43;;;2.17;;
27744;SDS011;61387;48.112;8.616;2023-04-10T13:52:29;3.20;;;1.92;;
27744;SDS011;61387;48.112;8.616;2023-04-10T13:54:55;4.03;;;2.30;;
27744;SDS011;61387;48.112;8.616;2023-04-10T13:57:20;3.45;;;2.62;;
27744;SDS011;61387;48.112;8.616;2023-04-10T13:59:46;3.00;;;2.23;;
27744;SDS011;61387;48.112;8.616;2023-04-10T14:02:12;3.73;;;2.30;;
27744;SDS011;61387;48.112;8.616;2023-04-10T14:04:37;3.50;;;2.20;;
27744;SDS011;61387;48.112;8.616;2023-04-10T14:07:03;3.97;;;2.40;;
27744;SDS011;61387;48.112;8.616;2023-04-10T14:09:29;2.50;;;2.20;;
27744;SDS011;61387;48.112;8.616;2023-04-10T14:11:55;3.37;;;2.03;;
27744;SDS011;61387;48.112;8.616;2023-04-10T14:14:21;2.97;;;2.30;;
27744;SDS011;61387;48.112;8.616;2023-04-10T14:16:48;5.00;;;2.45;;
27744;SDS011;61387;48.112;8.616;2023-04-10T14:19:14;2.62;;;2.12;;
27744;SDS011;61387;48.112;8.616;2023-04-10T14:21:39;3.93;;;2.33;;
27744;SDS011;61387;48.112;8.616;2023-04-10T14:24:09;3.58;;;2.33;;
27744;SDS011;61387;48.112;8.616;2023-04-10T14:26:35;3.35;;;2.53;;
27744;SDS011;61387;48.112;8.616;2023-04-10T14:29:00;3.67;;;2.63;;
27744;SDS011;61387;48.112;8.616;2023-04-10T14:31:26;4.12;;;2.50;;
27744;SDS011;61387;48.112;8.616;2023-04-10T14:33:52;3.67;;;2.60;;
27744;SDS011;61387;48.112;8.616;2023-04-10T14:36:17;3.85;;;2.25;;
27744;SDS011;61387;48.112;8.616;2023-04-10T14:38:43;2.97;;;2.57;;
27744;SDS011;61387;48.112;8.616;2023-04-10T14:41:09;3.60;;;2.53;;
27744;SDS011;61387;48.112;8.616;2023-04-10T14:43:34;4.40;;;2.80;;
27744;SDS011;61387;48.112;8.616;2023-04-10T14:46:00;2.67;;;2.30;;
27744;SDS011;61387;48.112;8.616;2023-04-10T14:48:26;3.77;;;2.60;;
27744;SDS011;61387;48.112;8.616;2023-04-10T14:50:51;4.17;;;2.80;;
27744;SDS011;61387;48.112;8.616;2023-04-10T14:53:18;3.13;;;2.37;;
27744;SDS011;61387;48.112;8.616;2023-04-10T14:55:46;3.83;;;2.60;;
27744;SDS011;61387;48.112;8.616;2023-04-10T14:58:11;4.23;;;2.73;;
27744;SDS011;61387;48.112;8.616;2023-04-10T15:00:37;4.82;;;3.28;;
27744;SDS011;61387;48.112;8.616;2023-04-10T15:03:03;2.93;;;2.30;;
27744;SDS011;61387;48.112;8.616;2023-04-10T15:05:29;3.00;;;2.53;;
27744;SDS011;61387;48.112;8.616;2023-04-10T15:07:55;3.27;;;2.57;;
27744;SDS011;61387;48.112;8.616;2023-04-10T15:10:21;5.60;;;3.40;;
27744;SDS011;61387;48.112;8.616;2023-04-10T15:12:47;3.80;;;2.80;;
27744;SDS011;61387;48.112;8.616;2023-04-10T15:15:12;5.33;;;3.10;;